sensor_id;sensor_type;location;lat;lon;timestamp;pressure;altitude;pressure_sealevel;temperature;humidity
31096;BME280;17749;51.962;8.560;2023-02-11T06:00:52;101629.28;;;5.23;100.00
31096;BME280;17749;51.962;8.560;2023-02-11T06:03:19;101634.56;;;5.23;100.00
31096;BME280;17749;51.962;8.560;2023-02-11T06:05:46;101634.56;;;5.23;100.00
31096;BME280;17749;51.962;8.560;2023-02-11T06:08:13;101626.66;;;5.22;100.00
31096;BME280;17749;51.962;8.560;2023-02-11T06:10:44;101626.66;;;5.19;100.00
31096;BME280;17749;51.962;8.560;2023-02-11T06:13:11;101638.09;;;5.22;100.00
31096;BME280;17749;51.962;8.560;2023-02-11T06:15:37;101623.13;;;5.20;100.00
31096;BME280;17749;51.962;8.560;2023-02-11T06:18:04;101627.53;;;5.19;100.00
31096;BME280;17749;51.962;8.560;2023-02-11T06:20:31;101636.34;;;5.21;100.00
31096;BME280;17749;51.962;8.560;2023-02-11T06:22:59;101643.38;;;5.22;100.00
31096;BME280;17749;51.962;8.560;2023-02-11T06:25:26;101640.72;;;5.21;100.00
31096;BME280;17749;51.962;8.560;2023-02-11T06:27:52;101631.00;;;5.12;100.00
31096;BME280;17749;51.962;8.560;2023-02-11T06:30:19;101646.91;;;5.21;100.00
31096;BME280;17749;51.962;8.560;2023-02-11T06:32:46;101644.28;;;5.21;100.00
31096;BME280;17749;51.962;8.560;2023-02-11T06:35:13;101647.75;;;5.20;100.00
31096;BME280;17749;51.962;8.560;2023-02-11T06:37:40;101650.44;;;5.22;100.00
31096;BME280;17749;51.962;8.560;2023-02-11T06:40:09;101660.13;;;5.21;100.00
31096;BME280;17749;51.962;8.560;2023-02-11T06:42:36;101654.84;;;5.24;100.00
31096;BME280;17749;51.962;8.560;2023-02-11T06:45:05;101659.25;;;5.25;100.00
31096;BME280;17749;51.962;8.560;2023-02-11T06:47:34;101661.00;;;5.26;100.00
31096;BME280;17749;51.962;8.560;2023-02-11T06:50:01;101658.38;;;5.25;100.00
31096;BME280;17749;51.962;8.560;2023-02-11T06:52:28;101661.00;;;5.23;100.00
31096;BME280;17749;51.962;8.560;2023-02-11T06:54:55;101670.69;;;5.26;100.00
31096;BME280;17749;51.962;8.560;2023-02-11T06:57:22;101671.53;;;5.20;100.00
31096;BME280;17749;51.962;8.560;2023-02-11T06:59:49;101673.34;;;5.26;100.00
31096;BME280;17749;51.962;8.560;2023-02-11T07:02:16;101672.47;;;5.25;100.00
31096;BME280;17749;51.962;8.560;2023-02-11T07:04:46;101672.47;;;5.27;100.00
31096;BME280;17749;51.962;8.560;2023-02-11T07:07:13;101668.06;;;5.24;100.00
31096;BME280;17749;51.962;8.560;2023-02-11T07:09:40;101661.88;;;5.25;100.00
31096;BME280;17749;51.962;8.560;2023-02-11T07:12:10;101669.81;;;5.22;100.00
31096;BME280;17749;51.962;8.560;2023-02-11T07:14:37;101672.47;;;5.25;100.00
31096;BME280;17749;51.962;8.560;2023-02-11T07:17:04;101670.69;;;5.23;100.00
31096;BME280;17749;51.962;8.560;2023-02-11T07:19:31;101667.16;;;5.22;100.00
31096;BME280;17749;51.962;8.560;2023-02-11T07:21:58;101666.28;;;5.23;100.00
31096;BME280;17749;51.962;8.560;2023-02-11T07:24:25;101670.69;;;5.26;100.00
31096;BME280;17749;51.962;8.560;2023-02-11T07:26:52;101675.13;;;5.28;100.00
31096;BME280;17749;51.962;8.560;2023-02-11T07:29:19;101669.81;;;5.28;100.00
31096;BME280;17749;51.962;8.560;2023-02-11T07:31:46;101678.63;;;5.27;100.00
31096;BME280;17749;51.962;8.560;2023-02-11T07:34:13;101678.63;;;5.24;100.00
31096;BME280;17749;51.962;8.560;2023-02-11T07:36:40;101678.63;;;5.27;100.00
31096;BME280;17749;51.962;8.560;2023-02-11T07:39:09;101686.56;;;5.29;100.00
31096;BME280;17749;51.962;8.560;2023-02-11T07:41:37;101687.47;;;5.33;100.00
31096;BME280;17749;51.962;8.560;2023-02-11T07:44:04;101696.31;;;5.35;100.00
31096;BME280;17749;51.962;8.560;2023-02-11T07:46:31;101687.50;;;5.39;100.00
31096;BME280;17749;51.962;8.560;2023-02-11T07:49:00;101690.13;;;5.36;100.00
31096;BME280;17749;51.962;8.560;2023-02-11T07:51:28;101693.69;;;5.39;100.00
31096;BME280;17749;51.962;8.560;2023-02-11T07:53:57;101688.38;;;5.35;100.00
31096;BME280;17749;51.962;8.560;2023-02-11T07:56:25;101683.97;;;5.37;100.00
31096;BME280;17749;51.962;8.560;2023-02-11T07:58:53;101686.59;;;5.32;100.00
31096;BME280;17749;51.962;8.560;2023-02-11T08:01:23;101683.94;;;5.31;100.00
31096;BME280;17749;51.962;8.560;2023-02-11T08:03:54;101668.09;;;5.31;100.00
31096;BME280;17749;51.962;8.560;2023-02-11T08:06:23;101675.13;;;5.32;100.00
31096;BME280;17749;51.962;8.560;2023-02-11T08:08:50;101674.22;;;5.28;100.00
31096;BME280;17749;51.962;8.560;2023-02-11T08:11:23;101673.34;;;5.24;100.00
31096;BME280;17749;51.962;8.560;2023-02-11T08:13:51;101685.66;;;5.25;100.00
31096;BME280;17749;51.962;8.560;2023-02-11T08:16:29;101690.97;;;5.28;100.00
31096;BME280;17749;51.962;8.560;2023-02-11T08:18:58;101698.03;;;5.34;100.00
31096;BME280;17749;51.962;8.560;2023-02-11T08:21:26;101695.38;;;5.31;100.00
31096;BME280;17749;51.962;8.560;2023-02-11T08:23:53;101706.91;;;5.38;100.00
31096;BME280;17749;51.962;8.560;2023-02-11T08:26:23;101708.63;;;5.36;100.00
31096;BME280;17749;51.962;8.560;2023-02-11T08:28:52;101700.69;;;5.33;100.00
31096;BME280;17749;51.962;8.560;2023-02-11T08:31:24;101716.53;;;5.34;100.00
31096;BME280;17749;51.962;8.560;2023-02-11T08:33:52;101712.19;;;5.38;100.00
31096;BME280;17749;51.962;8.560;2023-02-11T08:36:25;101702.44;;;5.32;100.00
31096;BME280;17749;51.962;8.560;2023-02-11T08:38:54;101703.34;;;5.36;100.00
31096;BME280;17749;51.962;8.560;2023-02-11T08:42:00;101710.38;;;5.37;100.00
31096;BME280;17749;51.962;8.560;2023-02-11T08:44:35;101712.16;;;5.35;100.00
31096;BME280;17749;51.962;8.560;2023-02-11T08:47:02;101706.88;;;5.35;100.00
31096;BME280;17749;51.962;8.560;2023-02-11T08:49:29;101703.34;;;5.33;100.00
31096;BME280;17749;51.962;8.560;2023-02-11T08:51:57;101714.81;;;5.39;100.00
31096;BME280;17749;51.962;8.560;2023-02-11T08:54:27;101707.78;;;5.40;100.00
31096;BME280;17749;51.962;8.560;2023-02-11T08:56:55;101712.09;;;5.28;100.00
31096;BME280;17749;51.962;8.560;2023-02-11T08:59:22;101715.72;;;5.40;100.00
31096;BME280;17749;51.962;8.560;2023-02-11T09:01:49;101718.38;;;5.40;100.00
31096;BME280;17749;51.962;8.560;2023-02-11T09:04:37;101720.94;;;5.34;100.00
31096;BME280;17749;51.962;8.560;2023-02-11T09:07:04;101713.06;;;5.38;100.00
31096;BME280;17749;51.962;8.560;2023-02-11T09:09:31;101721.03;;;5.46;100.00
31096;BME280;17749;51.962;8.560;2023-02-11T09:11:58;101727.16;;;5.42;100.00
31096;BME280;17749;51.962;8.560;2023-02-11T09:14:26;101735.13;;;5.45;100.00
31096;BME280;17749;51.962;8.560;2023-02-11T09:16:53;101725.41;;;5.44;100.00
31096;BME280;17749;51.962;8.560;2023-02-11T09:19:20;101726.31;;;5.46;100.00
31096;BME280;17749;51.962;8.560;2023-02-11T09:21:48;101736.88;;;5.46;100.00
31096;BME280;17749;51.962;8.560;2023-02-11T09:24:15;101734.25;;;5.47;100.00
31096;BME280;17749;51.962;8.560;2023-02-11T09:26:42;101736.91;;;5.52;100.00
31096;BME280;17749;51.962;8.560;2023-02-11T09:29:11;101736.94;;;5.55;100.00
31096;BME280;17749;51.962;8.560;2023-02-11T09:31:38;101742.22;;;5.55;100.00
31096;BME280;17749;51.962;8.560;2023-02-11T09:34:05;101741.34;;;5.55;100.00
31096;BME280;17749;51.962;8.560;2023-02-11T09:36:36;101751.06;;;5.59;100.00
31096;BME280;17749;51.962;8.560;2023-02-11T09:39:06;101762.56;;;5.65;100.00
31096;BME280;17749;51.962;8.560;2023-02-11T09:44:31;101767.88;;;5.67;100.00
31096;BME280;17749;51.962;8.560;2023-02-11T09:47:01;101767.00;;;5.69;100.00
31096;BME280;17749;51.962;8.560;2023-02-11T09:52:49;101779.34;;;5.74;100.00
31096;BME280;17749;51.962;8.560;2023-02-11T09:55:40;101781.13;;;5.71;100.00
31096;BME280;17749;51.962;8.560;2023-02-11T09:58:12;101785.56;;;5.77;100.00
31096;BME280;17749;51.962;8.560;2023-02-11T10:00:44;101782.91;;;5.76;100.00
31096;BME280;17749;51.962;8.560;2023-02-11T10:03:29;101775.88;;;5.81;100.00
31096;BME280;17749;51.962;8.560;2023-02-11T10:11:52;101777.66;;;5.82;100.00
31096;BME280;17749;51.962;8.560;2023-02-11T10:23:38;101791.75;;;5.79;100.00
31096;BME280;17749;51.962;8.560;2023-02-11T10:26:14;101799.69;;;5.82;100.00
31096;BME280;17749;51.962;8.560;2023-02-11T10:28:45;101801.44;;;5.83;100.00
31096;BME280;17749;51.962;8.560;2023-02-11T10:31:37;101808.53;;;5.86;100.00
31096;BME280;17749;51.962;8.560;2023-02-11T10:34:18;101807.66;;;5.87;100.00
31096;BME280;17749;51.962;8.560;2023-02-11T10:36:48;101812.94;;;5.87;100.00
31096;BME280;17749;51.962;8.560;2023-02-11T10:39:20;101821.75;;;5.89;100.00
31096;BME280;17749;51.962;8.560;2023-02-11T10:41:52;101821.75;;;5.92;100.00
31096;BME280;17749;51.962;8.560;2023-02-11T10:44:32;101816.47;;;5.89;100.00
31096;BME280;17749;51.962;8.560;2023-02-11T10:47:21;101813.84;;;5.90;100.00
31096;BME280;17749;51.962;8.560;2023-02-11T10:49:49;101811.28;;;5.98;100.00
31096;BME280;17749;51.962;8.560;2023-02-11T10:57:30;101815.66;;;5.96;100.00
31096;BME280;17749;51.962;8.560;2023-02-11T11:00:01;101820.06;;;5.97;100.00
31096;BME280;17749;51.962;8.560;2023-02-11T11:02:31;101815.72;;;6.01;100.00
31096;BME280;17749;51.962;8.560;2023-02-11T11:05:18;101808.69;;;6.03;100.00
31096;BME280;17749;51.962;8.560;2023-02-11T11:08:01;101811.31;;;6.04;100.00
31096;BME280;17749;51.962;8.560;2023-02-11T11:10:35;101811.28;;;6.01;100.00
31096;BME280;17749;51.962;8.560;2023-02-11T11:13:03;101811.31;;;6.07;100.00
31096;BME280;17749;51.962;8.560;2023-02-11T11:15:30;101807.75;;;6.02;100.00
31096;BME280;17749;51.962;8.560;2023-02-11T11:18:17;101809.56;;;6.06;100.00
31096;BME280;17749;51.962;8.560;2023-02-11T11:21:03;101806.06;;;6.10;100.00
31096;BME280;17749;51.962;8.560;2023-02-11T11:23:35;101791.94;;;6.05;100.00
31096;BME280;17749;51.962;8.560;2023-02-11T11:26:06;101791.94;;;6.10;100.00
31096;BME280;17749;51.962;8.560;2023-02-11T11:28:38;101788.44;;;6.08;100.00
31096;BME280;17749;51.962;8.560;2023-02-11T11:34:20;101796.38;;;6.08;100.00
31096;BME280;17749;51.962;8.560;2023-02-11T11:36:48;101805.19;;;6.14;100.00
31096;BME280;17749;51.962;8.560;2023-02-11T11:39:33;101809.63;;;6.20;100.00
31096;BME280;17749;51.962;8.560;2023-02-11T11:42:03;101803.47;;;6.23;100.00
31096;BME280;17749;51.962;8.560;2023-02-11T11:44:37;101808.78;;;6.21;100.00
31096;BME280;17749;51.962;8.560;2023-02-11T11:52:42;101802.59;;;6.22;100.00
31096;BME280;17749;51.962;8.560;2023-02-11T11:55:17;101804.34;;;6.23;100.00
31096;BME280;17749;51.962;8.560;2023-02-11T11:57:46;101801.72;;;6.25;100.00
31096;BME280;17749;51.962;8.560;2023-02-11T12:05:32;101806.16;;;6.29;100.00
31096;BME280;17749;51.962;8.560;2023-02-11T12:08:11;101804.41;;;6.34;100.00
31096;BME280;17749;51.962;8.560;2023-02-11T12:10:57;101799.09;;;6.34;100.00
31096;BME280;17749;51.962;8.560;2023-02-11T12:13:49;101795.59;;;6.35;100.00
31096;BME280;17749;51.962;8.560;2023-02-11T12:21:27;101805.31;;;6.41;100.00
31096;BME280;17749;51.962;8.560;2023-02-11T12:33:38;101800.97;;;6.50;100.00
31096;BME280;17749;51.962;8.560;2023-02-11T12:39:01;101797.44;;;6.59;100.00
31096;BME280;17749;51.962;8.560;2023-02-11T12:47:42;101783.34;;;6.65;100.00
31096;BME280;17749;51.962;8.560;2023-02-11T12:50:26;101788.69;;;6.77;100.00
31096;BME280;17749;51.962;8.560;2023-02-11T12:55:51;101781.63;;;6.77;100.00
31096;BME280;17749;51.962;8.560;2023-02-11T12:58:23;101783.38;;;6.80;100.00
31096;BME280;17749;51.962;8.560;2023-02-11T13:01:21;101786.06;;;6.89;100.00
31096;BME280;17749;51.962;8.560;2023-02-11T13:03:53;101794.00;;;6.92;100.00
31096;BME280;17749;51.962;8.560;2023-02-11T13:06:28;101795.78;;;6.96;100.00
31096;BME280;17749;51.962;8.560;2023-02-11T13:09:00;101794.00;;;6.98;100.00
31096;BME280;17749;51.962;8.560;2023-02-11T13:11:38;101788.72;;;6.98;100.00
31096;BME280;17749;51.962;8.560;2023-02-11T13:14:15;101778.13;;;6.98;100.00
31096;BME280;17749;51.962;8.560;2023-02-11T13:16:48;101779.91;;;7.02;100.00
31096;BME280;17749;51.962;8.560;2023-02-11T13:19:28;101781.66;;;7.10;100.00
31096;BME280;17749;51.962;8.560;2023-02-11T13:24:50;101785.19;;;7.09;100.00
31096;BME280;17749;51.962;8.560;2023-02-11T13:38:05;101779.03;;;7.19;100.00
31096;BME280;17749;51.962;8.560;2023-02-11T13:40:43;101774.63;;;7.21;100.00
31096;BME280;17749;51.962;8.560;2023-02-11T13:43:23;101784.31;;;7.19;100.00
31096;BME280;17749;51.962;8.560;2023-02-11T13:45:51;101779.91;;;7.13;100.00
31096;BME280;17749;51.962;8.560;2023-02-11T13:48:25;101787.88;;;7.18;100.00
31096;BME280;17749;51.962;8.560;2023-02-11T13:51:08;101779.91;;;7.16;100.00
31096;BME280;17749;51.962;8.560;2023-02-11T13:53:51;101785.22;;;7.21;100.00
31096;BME280;17749;51.962;8.560;2023-02-11T13:56:28;101778.16;;;7.21;100.00
31096;BME280;17749;51.962;8.560;2023-02-11T13:58:56;101785.22;;;7.21;100.00
31096;BME280;17749;51.962;8.560;2023-02-11T14:02:02;101788.72;;;7.20;100.00
31096;BME280;17749;51.962;8.560;2023-02-11T14:13:32;101779.91;;;7.21;100.00
31096;BME280;17749;51.962;8.560;2023-02-11T14:21:31;101775.50;;;7.24;100.00
31096;BME280;17749;51.962;8.560;2023-02-11T14:26:40;101779.91;;;7.24;100.00
31096;BME280;17749;51.962;8.560;2023-02-11T14:32:09;101778.16;;;7.26;100.00
31096;BME280;17749;51.962;8.560;2023-02-11T14:37:18;101778.16;;;7.26;100.00
31096;BME280;17749;51.962;8.560;2023-02-11T14:40:01;101783.44;;;7.29;100.00
31096;BME280;17749;51.962;8.560;2023-02-11T14:42:30;101778.16;;;7.24;100.00
31096;BME280;17749;51.962;8.560;2023-02-11T14:45:06;101783.44;;;7.29;100.00
31096;BME280;17749;51.962;8.560;2023-02-11T14:48:15;101777.28;;;7.32;100.00
31096;BME280;17749;51.962;8.560;2023-02-11T14:53:31;101788.75;;;7.35;100.00
31096;BME280;17749;51.962;8.560;2023-02-11T14:55:59;101774.59;;;7.30;100.00
31096;BME280;17749;51.962;8.560;2023-02-11T14:58:31;101789.66;;;7.39;100.00
31096;BME280;17749;51.962;8.560;2023-02-11T15:01:03;101788.75;;;7.35;100.00
31096;BME280;17749;51.962;8.560;2023-02-11T15:06:19;101794.03;;;7.35;100.00
31096;BME280;17749;51.962;8.560;2023-02-11T15:08:50;101794.94;;;7.34;100.00
31096;BME280;17749;51.962;8.560;2023-02-11T15:11:20;101803.75;;;7.33;100.00
31096;BME280;17749;51.962;8.560;2023-02-11T15:13:48;101808.19;;;7.39;100.00
31096;BME280;17749;51.962;8.560;2023-02-11T15:16:19;101809.97;;;7.41;100.00
31096;BME280;17749;51.962;8.560;2023-02-11T15:18:56;101811.72;;;7.39;100.00
31096;BME280;17749;51.962;8.560;2023-02-11T15:21:28;101825.84;;;7.38;100.00
31096;BME280;17749;51.962;8.560;2023-02-11T15:24:02;101820.53;;;7.38;100.00
31096;BME280;17749;51.962;8.560;2023-02-11T15:26:32;101820.53;;;7.38;100.00
31096;BME280;17749;51.962;8.560;2023-02-11T15:28:59;101834.69;;;7.42;100.00
31096;BME280;17749;51.962;8.560;2023-02-11T15:31:26;101826.75;;;7.39;100.00
31096;BME280;17749;51.962;8.560;2023-02-11T15:33:54;101827.63;;;7.35;100.00
31096;BME280;17749;51.962;8.560;2023-02-11T15:36:23;101843.53;;;7.45;100.00
31096;BME280;17749;51.962;8.560;2023-02-11T15:39:17;101839.97;;;7.46;100.00
31096;BME280;17749;51.962;8.560;2023-02-11T15:41:44;101824.97;;;7.41;100.00
31096;BME280;17749;51.962;8.560;2023-02-11T15:44:31;101832.06;;;7.42;100.00
31096;BME280;17749;51.962;8.560;2023-02-11T15:46:59;101824.09;;;7.40;100.00
31096;BME280;17749;51.962;8.560;2023-02-11T15:49:26;101837.34;;;7.45;100.00
31096;BME280;17749;51.962;8.560;2023-02-11T15:51:54;101837.34;;;7.42;100.00
31096;BME280;17749;51.962;8.560;2023-02-11T15:54:25;101841.78;;;7.47;100.00
31096;BME280;17749;51.962;8.560;2023-02-11T15:57:00;101840.88;;;7.42;100.00
31096;BME280;17749;51.962;8.560;2023-02-11T15:59:31;101843.53;;;7.42;100.00
31096;BME280;17749;51.962;8.560;2023-02-11T16:02:15;101851.47;;;7.35;100.00
31096;BME280;17749;51.962;8.560;2023-02-11T16:04:51;101854.16;;;7.36;100.00
31096;BME280;17749;51.962;8.560;2023-02-11T16:07:42;101855.88;;;7.33;100.00
31096;BME280;17749;51.962;8.560;2023-02-11T16:18:01;101851.47;;;7.44;100.00
31096;BME280;17749;51.962;8.560;2023-02-11T16:20:29;101859.44;;;7.42;100.00
31096;BME280;17749;51.962;8.560;2023-02-11T16:22:56;101864.75;;;7.45;100.00
31096;BME280;17749;51.962;8.560;2023-02-11T16:25:23;101862.09;;;7.39;100.00
31096;BME280;17749;51.962;8.560;2023-02-11T16:27:51;101864.75;;;7.39;100.00
31096;BME280;17749;51.962;8.560;2023-02-11T16:30:33;101869.16;;;7.42;100.00
31096;BME280;17749;51.962;8.560;2023-02-11T16:33:02;101868.28;;;7.43;100.00
31096;BME280;17749;51.962;8.560;2023-02-11T16:35:30;101862.06;;;7.38;100.00
31096;BME280;17749;51.962;8.560;2023-02-11T16:37:57;101868.25;;;7.38;100.00
31096;BME280;17749;51.962;8.560;2023-02-11T16:40:24;101866.50;;;7.34;100.00
31096;BME280;17749;51.962;8.560;2023-02-11T16:42:51;101874.44;;;7.34;100.00
31096;BME280;17749;51.962;8.560;2023-02-11T16:45:18;101892.13;;;7.34;100.00
31096;BME280;17749;51.962;8.560;2023-02-11T16:47:45;101885.94;;;7.32;100.00
31096;BME280;17749;51.962;8.560;2023-02-11T16:50:22;101883.28;;;7.30;100.00
31096;BME280;17749;51.962;8.560;2023-02-11T16:52:49;101887.69;;;7.33;100.00
31096;BME280;17749;51.962;8.560;2023-02-11T16:55:17;101888.59;;;7.35;100.00
31096;BME280;17749;51.962;8.560;2023-02-11T16:57:46;101887.72;;;7.31;100.00
31096;BME280;17749;51.962;8.560;2023-02-11T17:00:15;101892.13;;;7.32;100.00
31096;BME280;17749;51.962;8.560;2023-02-11T17:02:42;101899.19;;;7.32;100.00
31096;BME280;17749;51.962;8.560;2023-02-11T17:05:18;101883.28;;;7.24;100.00
31096;BME280;17749;51.962;8.560;2023-02-11T17:07:46;101896.53;;;7.27;100.00
31096;BME280;17749;51.962;8.560;2023-02-11T17:10:18;101893.88;;;7.27;100.00
31096;BME280;17749;51.962;8.560;2023-02-11T17:12:47;101894.75;;;7.26;100.00
31096;BME280;17749;51.962;8.560;2023-02-11T17:15:13;101888.56;;;7.30;100.00
31096;BME280;17749;51.962;8.560;2023-02-11T17:17:41;101891.22;;;7.35;100.00
31096;BME280;17749;51.962;8.560;2023-02-11T17:20:13;101886.81;;;7.34;100.00
31096;BME280;17749;51.962;8.560;2023-02-11T17:22:40;101887.69;;;7.33;100.00
31096;BME280;17749;51.962;8.560;2023-02-11T17:25:07;101890.34;;;7.27;100.00
31096;BME280;17749;51.962;8.560;2023-02-11T17:27:34;101893.84;;;7.25;100.00
31096;BME280;17749;51.962;8.560;2023-02-11T17:30:01;101899.19;;;7.29;100.00
31096;BME280;17749;51.962;8.560;2023-02-11T17:32:28;101903.59;;;7.30;100.00
31096;BME280;17749;51.962;8.560;2023-02-11T17:34:55;101911.53;;;7.30;100.00
31096;BME280;17749;51.962;8.560;2023-02-11T17:37:22;101904.47;;;7.24;100.00
31096;BME280;17749;51.962;8.560;2023-02-11T17:39:49;101892.97;;;7.22;100.00
31096;BME280;17749;51.962;8.560;2023-02-11T17:42:16;101897.41;;;7.28;100.00
31096;BME280;17749;51.962;8.560;2023-02-11T17:44:44;101896.53;;;7.27;100.00
31096;BME280;17749;51.962;8.560;2023-02-11T17:47:12;101893.88;;;7.29;100.00
31096;BME280;17749;51.962;8.560;2023-02-11T17:49:39;101904.44;;;7.25;100.00
31096;BME280;17749;51.962;8.560;2023-02-11T17:52:06;101907.13;;;7.27;100.00
31096;BME280;17749;51.962;8.560;2023-02-11T17:54:33;101907.13;;;7.24;100.00
31096;BME280;17749;51.962;8.560;2023-02-11T17:57:00;101901.81;;;7.21;100.00
31096;BME280;17749;51.962;8.560;2023-02-11T17:59:27;101908.88;;;7.22;100.00
31096;BME280;17749;51.962;8.560;2023-02-11T18:02:05;101915.06;;;7.25;100.00
31096;BME280;17749;51.962;8.560;2023-02-11T18:04:32;101916.84;;;7.27;100.00
31096;BME280;17749;51.962;8.560;2023-02-11T18:06:58;101915.97;;;7.26;100.00
31096;BME280;17749;51.962;8.560;2023-02-11T18:09:25;101919.50;;;7.27;100.00
31096;BME280;17749;51.962;8.560;2023-02-11T18:11:52;101923.00;;;7.21;100.00
31096;BME280;17749;51.962;8.560;2023-02-11T18:14:20;101929.19;;;7.21;100.00
31096;BME280;17749;51.962;8.560;2023-02-11T18:16:51;101933.63;;;7.21;100.00
31096;BME280;17749;51.962;8.560;2023-02-11T18:19:18;101928.31;;;7.21;100.00
31096;BME280;17749;51.962;8.560;2023-02-11T18:21:45;101940.69;;;7.25;100.00
31096;BME280;17749;51.962;8.560;2023-02-11T18:24:15;101948.66;;;7.23;100.00
31096;BME280;17749;51.962;8.560;2023-02-11T18:26:42;101956.56;;;7.22;100.00
31096;BME280;17749;51.962;8.560;2023-02-11T18:29:08;101944.22;;;7.21;100.00
31096;BME280;17749;51.962;8.560;2023-02-11T18:31:35;101948.66;;;7.27;100.00
31096;BME280;17749;51.962;8.560;2023-02-11T18:34:04;101949.50;;;7.25;100.00
31096;BME280;17749;51.962;8.560;2023-02-11T18:36:33;101951.28;;;7.25;100.00
31096;BME280;17749;51.962;8.560;2023-02-11T18:39:01;101960.13;;;7.21;100.00
31096;BME280;17749;51.962;8.560;2023-02-11T18:41:28;101958.31;;;7.17;100.00
31096;BME280;17749;51.962;8.560;2023-02-11T18:43:58;101958.31;;;7.17;100.00
31096;BME280;17749;51.962;8.560;2023-02-11T18:46:28;101958.34;;;7.23;100.00
31096;BME280;17749;51.962;8.560;2023-02-11T18:48:56;101960.97;;;7.23;100.00
31096;BME280;17749;51.962;8.560;2023-02-11T18:51:23;101959.25;;;7.23;100.00
31096;BME280;17749;51.962;8.560;2023-02-11T18:53:50;101961.88;;;7.22;100.00
31096;BME280;17749;51.962;8.560;2023-02-11T18:56:19;101972.47;;;7.25;100.00
31096;BME280;17749;51.962;8.560;2023-02-11T18:58:47;101974.28;;;7.26;100.00
31096;BME280;17749;51.962;8.560;2023-02-11T19:01:17;101980.44;;;7.23;100.00
31096;BME280;17749;51.962;8.560;2023-02-11T19:03:45;101966.31;;;7.24;100.00
31096;BME280;17749;51.962;8.560;2023-02-11T19:06:15;101978.69;;;7.30;100.00
31096;BME280;17749;51.962;8.560;2023-02-11T19:08:43;101978.69;;;7.29;100.00
31096;BME280;17749;51.962;8.560;2023-02-11T19:11:10;101974.28;;;7.29;100.00
31096;BME280;17749;51.962;8.560;2023-02-11T19:13:37;101977.81;;;7.34;100.00
31096;BME280;17749;51.962;8.560;2023-02-11T19:16:06;101986.66;;;7.35;100.00
31096;BME280;17749;51.962;8.560;2023-02-11T19:18:37;101995.50;;;7.35;100.00
31096;BME280;17749;51.962;8.560;2023-02-11T19:21:11;101993.72;;;7.34;100.00
31096;BME280;17749;51.962;8.560;2023-02-11T19:23:38;101996.34;;;7.28;100.00
31096;BME280;17749;51.962;8.560;2023-02-11T19:26:05;101999.03;;;7.31;100.00
31096;BME280;17749;51.962;8.560;2023-02-11T19:28:33;101988.38;;;7.28;100.00
31096;BME280;17749;51.962;8.560;2023-02-11T19:31:07;101999.00;;;7.27;100.00
31096;BME280;17749;51.962;8.560;2023-02-11T19:33:35;101997.22;;;7.27;100.00
31096;BME280;17749;51.962;8.560;2023-02-11T19:36:06;102003.44;;;7.29;100.00
31096;BME280;17749;51.962;8.560;2023-02-11T19:38:34;102011.38;;;7.26;100.00
31096;BME280;17749;51.962;8.560;2023-02-11T19:41:01;102016.66;;;7.26;100.00
31096;BME280;17749;51.962;8.560;2023-02-11T19:43:28;102007.81;;;7.24;100.00
31096;BME280;17749;51.962;8.560;2023-02-11T19:45:55;102010.47;;;7.25;100.00
31096;BME280;17749;51.962;8.560;2023-02-11T19:48:23;102007.84;;;7.30;100.00
31096;BME280;17749;51.962;8.560;2023-02-11T19:50:51;102013.13;;;7.27;100.00
31096;BME280;17749;51.962;8.560;2023-02-11T19:53:18;102010.50;;;7.30;100.00
31096;BME280;17749;51.962;8.560;2023-02-11T19:55:45;102014.03;;;7.26;100.00
31096;BME280;17749;51.962;8.560;2023-02-11T19:58:12;102019.31;;;7.29;100.00
31096;BME280;17749;51.962;8.560;2023-02-11T20:00:39;102016.69;;;7.29;100.00
31096;BME280;17749;51.962;8.560;2023-02-11T20:03:06;102022.84;;;7.30;100.00
31096;BME280;17749;51.962;8.560;2023-02-11T20:05:38;102024.66;;;7.34;100.00
31096;BME280;17749;51.962;8.560;2023-02-11T20:08:05;102028.19;;;7.34;100.00
31096;BME280;17749;51.962;8.560;2023-02-11T20:10:33;102016.69;;;7.35;100.00
31096;BME280;17749;51.962;8.560;2023-02-11T20:13:00;102014.94;;;7.31;100.00
31096;BME280;17749;51.962;8.560;2023-02-11T20:15:27;102017.59;;;7.34;100.00
31096;BME280;17749;51.962;8.560;2023-02-11T20:17:54;102015.78;;;7.33;100.00
31096;BME280;17749;51.962;8.560;2023-02-11T20:20:20;102021.09;;;7.27;100.00
31096;BME280;17749;51.962;8.560;2023-02-11T20:22:47;102021.97;;;7.26;100.00
31096;BME280;17749;51.962;8.560;2023-02-11T20:25:14;102023.75;;;7.30;100.00
31096;BME280;17749;51.962;8.560;2023-02-11T20:27:41;102019.34;;;7.34;100.00
31096;BME280;17749;51.962;8.560;2023-02-11T20:30:08;102014.06;;;7.34;100.00
31096;BME280;17749;51.962;8.560;2023-02-11T20:32:36;102021.09;;;7.30;100.00
31096;BME280;17749;51.962;8.560;2023-02-11T20:35:06;102026.41;;;7.33;100.00
31096;BME280;17749;51.962;8.560;2023-02-11T20:37:33;102029.03;;;7.33;100.00
31096;BME280;17749;51.962;8.560;2023-02-11T20:40:00;102023.75;;;7.30;100.00
31096;BME280;17749;51.962;8.560;2023-02-11T20:42:27;102017.56;;;7.27;100.00
31096;BME280;17749;51.962;8.560;2023-02-11T20:44:54;102029.03;;;7.30;100.00
31096;BME280;17749;51.962;8.560;2023-02-11T20:47:21;102041.44;;;7.34;100.00
31096;BME280;17749;51.962;8.560;2023-02-11T20:49:48;102032.59;;;7.29;100.00
31096;BME280;17749;51.962;8.560;2023-02-11T20:52:15;102034.34;;;7.30;100.00
31096;BME280;17749;51.962;8.560;2023-02-11T20:54:42;102032.59;;;7.29;100.00
31096;BME280;17749;51.962;8.560;2023-02-11T20:57:09;102038.78;;;7.36;100.00
31096;BME280;17749;51.962;8.560;2023-02-11T20:59:36;102034.34;;;7.30;100.00
31096;BME280;17749;51.962;8.560;2023-02-11T21:02:02;102041.44;;;7.34;100.00
31096;BME280;17749;51.962;8.560;2023-02-11T21:04:29;102036.13;;;7.34;100.00